Hill Air Force Base, UT (84056)

7:19 AM MDT on August 31, 2015 (GMT -0600)
East Layton-Wyndom Heights | | Change Station
CLOSE
Current Station
Personal Weather Station
Location: Layton, UT
Elevation: 4780 ft
Nearby Weather Stations

Elev 4780 ft 41.10 °N, 111.94 °W | Updated 0 second ago

Scattered Clouds
Scattered Clouds
65.2 °F
Feels Like 65.2 °F
N
2.0
Wind Variable Wind from NE
Gusts 2.2 mph

Today
High -- | Low -- °F
--% Chance of Precip.
Yesterday
High -- | Low -- °F
Precip. -- in
6:53 AM 8:02 PM
Waning Gibbous, 95% visible
Pressure 29.92 in
Visibility 10.0 miles
Clouds Scattered Clouds 11000 ft
Dew Point 43 °F
Humidity 44%
Rainfall 0.00 in
Snow Depth Not available.
UV 0 out of 12
Pollen 9.10 out of 12
Air Quality Not available.
Flu Activity Not available.
METAR KHIF 311258Z VRB04KT 10SM SCT110 16/03 A3008 RMK AO2A SLP130 T01620032
Pressure 29.92 in
Visibility 10.0 miles
Clouds Scattered Clouds 11000 ft
Dew Point 43 °F
Humidity 44%
Rainfall 0.00 in
Snow Depth Not available.
UV 0 out of 12
Pollen 9.10 out of 12
Air Quality Not available.
Flu Activity Not available.
METAR KHIF 311258Z VRB04KT 10SM SCT110 16/03 A3008 RMK AO2A SLP130 T01620032

10-Day Weather Forecast

×

Almanac

Astronomy

Aug. 31, 2015 Rise Set
Actual Time
Civil Twilight
Nautical Twilight
Astronomical Twilight
Moon
Length of Visible Light
Length of Day
Tomorrow will be .
, % of the Moon is Illuminated

Today's Extremes

State Highs State Lows

Community

WunderPhotos

Upload Photos

1,851,226 photos uploaded!

WunderBlogs® & News

Nearby

Air Quality

  Air Quality AQ Index Pollutant
Not available.

Snow Depth

Station Depth Elevation

Earthquake Activity

City Distance Mag. Time & Date
Minimum magnitude displayed is 2.5.

Coastal Water Temperatures

Place Temperature

Stations

Nearby Weather Stations

Station Location Temp. Windchill Dew Point Humidity Wind Precip. Elev Updated Type